Time;durP1;ratioP1;P1;durP2;ratioP2;P2;SDS_P1;SDS_P2;PMS_P1;PMS_P2;Temp;Humidity;BMP_temperature;BMP_pressure;BME280_temperature;BME280_humidity;BME280_pressure;Samples;Min_cycle;Max_cycle;Signal;HPM_P1;HPM_P2
2022/04/01 00:00:54;;;;;;;;;;;3.40;99.90;;;;;;5101129;28;20026;-79
2022/04/01 00:03:21;;;;;;;;;;;3.40;99.90;;;;;;5095782;28;19977;-79
2022/04/01 00:05:48;;;;;;;;;;;3.40;99.90;;;;;;5095632;28;20014;-79
2022/04/01 00:08:15;;;;;;;;;;;3.40;99.90;;;;;;5096484;28;19924;-78
2022/04/01 00:10:41;;;;;;;;;;;3.40;99.90;;;;;;5105984;28;19993;-79
2022/04/01 00:13:08;;;;;;;;;;;3.40;99.90;;;;;;5111868;28;20453;-79
2022/04/01 00:15:35;;;;;;;;;;;3.40;99.90;;;;;;5103023;28;21256;-79
2022/04/01 00:18:03;;;;;;;;;;;3.40;99.90;;;;;;5102177;28;20022;-79
2022/04/01 00:20:29;;;;;;;;;;;3.40;99.90;;;;;;5101499;28;19928;-79
2022/04/01 00:22:56;;;;;;;;;;;3.40;99.90;;;;;;5098565;28;20018;-79
2022/04/01 00:25:23;;;;;;;;;;;3.30;99.90;;;;;;5107225;28;19932;-79
2022/04/01 00:27:50;;;;;;;;;;;3.30;99.90;;;;;;5103691;28;19974;-79
2022/04/01 00:30:17;;;;;;;;;;;3.30;99.90;;;;;;5115378;28;20027;-78
2022/04/01 00:32:51;;;;;;;;;;;3.30;99.90;;;;;;5112544;28;19930;-79
2022/04/01 00:35:18;;;;;;;;;;;3.30;99.90;;;;;;5109981;28;19923;-78
2022/04/01 00:41:14;;;;;;;;;;;3.30;99.90;;;;;;5107016;28;20039;-79
2022/04/01 00:43:40;;;;;;;;;;;3.40;99.90;;;;;;5102607;28;20010;-79
2022/04/01 00:46:08;;;;;;;;;;;3.30;99.90;;;;;;5106374;28;19924;-78
2022/04/01 00:48:35;;;;;;;;;;;3.30;99.90;;;;;;5102438;28;20006;-78
2022/04/01 00:51:02;;;;;;;;;;;3.20;99.90;;;;;;5096651;28;20016;-78
2022/04/01 00:53:31;;;;;;;;;;;3.30;99.90;;;;;;5103864;28;20300;-78
2022/04/01 00:56:01;;;;;;;;;;;3.20;99.90;;;;;;5111388;28;19930;-79
2022/04/01 00:58:30;;;;;;;;;;;3.20;99.90;;;;;;5101927;28;19924;-78
2022/04/01 01:00:56;;;;;;;;;;;3.20;99.90;;;;;;5106884;28;19962;-79
2022/04/01 01:03:23;;;;;;;;;;;3.20;99.90;;;;;;5108215;28;19925;-79
2022/04/01 01:05:50;;;;;;;;;;;3.20;99.90;;;;;;5105431;28;19968;-79
2022/04/01 01:08:17;;;;;;;;;;;3.20;99.90;;;;;;5104350;28;19999;-78
2022/04/01 01:10:46;;;;;;;;;;;3.20;99.90;;;;;;5104398;28;20302;-78
2022/04/01 01:13:13;;;;;;;;;;;3.20;99.90;;;;;;5101618;28;19923;-79
2022/04/01 01:15:39;;;;;;;;;;;3.20;99.90;;;;;;5094914;28;19992;-79
2022/04/01 01:18:06;;;;;;;;;;;3.20;99.90;;;;;;5094902;28;20019;-79
2022/04/01 01:20:34;;;;;;;;;;;3.20;99.90;;;;;;5097170;28;19928;-78
2022/04/01 01:23:00;;;;;;;;;;;3.20;99.90;;;;;;5095254;28;19963;-78
2022/04/01 01:25:27;;;;;;;;;;;3.20;99.90;;;;;;5094673;28;20305;-79
2022/04/01 01:27:54;;;;;;;;;;;3.30;99.90;;;;;;5094951;28;20621;-80
2022/04/01 01:30:20;;;;;;;;;;;3.20;99.90;;;;;;5094008;28;19924;-80
2022/04/01 01:32:50;;;;;;;;;;;3.20;99.90;;;;;;5095035;28;20289;-79
2022/04/01 01:35:16;;;;;;;;;;;3.20;99.90;;;;;;5083627;28;19924;-79
2022/04/01 01:37:43;;;;;;;;;;;3.20;99.90;;;;;;5094183;28;19934;-79
2022/04/01 01:40:10;;;;;;;;;;;3.20;99.90;;;;;;5095310;28;20390;-79
2022/04/01 01:42:37;;;;;;;;;;;3.20;99.90;;;;;;5091830;28;20010;-79
2022/04/01 01:45:05;;;;;;;;;;;3.20;99.90;;;;;;5102523;28;19930;-78
2022/04/01 01:47:31;;;;;;;;;;;3.20;99.90;;;;;;5100319;28;19932;-79
2022/04/01 01:55:31;;;;;;;;;;;3.10;99.90;;;;;;5107471;28;19923;-79
2022/04/01 01:57:58;;;;;;;;;;;3.10;99.90;;;;;;5102372;28;20009;-79
2022/04/01 02:00:25;;;;;;;;;;;3.10;99.90;;;;;;5094726;28;19928;-79
2022/04/01 02:02:51;;;;;;;;;;;3.10;99.90;;;;;;5106008;28;19924;-79
2022/04/01 02:05:18;;;;;;;;;;;3.10;99.90;;;;;;5098608;28;20022;-79
2022/04/01 02:07:47;;;;;;;;;;;3.10;99.90;;;;;;5093136;28;20043;-79
2022/04/01 02:10:15;;;;;;;;;;;3.10;99.90;;;;;;5076283;28;20398;-80
2022/04/01 02:12:43;;;;;;;;;;;3.10;99.90;;;;;;5076709;28;20386;-79
2022/04/01 02:15:20;;;;;;;;;;;3.10;99.90;;;;;;5109349;28;20271;-79
2022/04/01 02:17:47;;;;;;;;;;;3.10;99.90;;;;;;5096756;28;19950;-79
2022/04/01 02:20:14;;;;;;;;;;;3.00;99.90;;;;;;5094296;28;20014;-79
2022/04/01 02:22:40;;;;;;;;;;;3.10;99.90;;;;;;5076438;28;20424;-79
2022/04/01 02:25:07;;;;;;;;;;;3.10;99.90;;;;;;5093119;28;19978;-79
2022/04/01 02:27:34;;;;;;;;;;;3.10;99.90;;;;;;5103778;28;20003;-79
2022/04/01 02:30:10;;;;;;;;;;;3.10;99.90;;;;;;5102831;28;19924;-79
2022/04/01 02:32:37;;;;;;;;;;;3.10;99.90;;;;;;5096647;28;20435;-80
2022/04/01 02:35:04;;;;;;;;;;;3.00;99.90;;;;;;5097961;28;19924;-80
2022/04/01 02:37:31;;;;;;;;;;;3.00;99.90;;;;;;5093467;28;19969;-80
2022/04/01 02:39:58;;;;;;;;;;;2.90;99.90;;;;;;5083458;28;20014;-80
2022/04/01 02:42:25;;;;;;;;;;;3.00;99.90;;;;;;5103682;28;19978;-79
2022/04/01 02:44:52;;;;;;;;;;;2.90;99.90;;;;;;5104393;28;20806;-79
2022/04/01 02:47:20;;;;;;;;;;;3.00;99.90;;;;;;5086971;28;19974;-80
2022/04/01 02:49:47;;;;;;;;;;;2.90;99.90;;;;;;5094979;28;19928;-80
2022/04/01 02:52:13;;;;;;;;;;;2.90;99.90;;;;;;5102855;28;20038;-80
2022/04/01 02:54:40;;;;;;;;;;;2.90;99.90;;;;;;5102897;28;19924;-80
2022/04/01 02:57:09;;;;;;;;;;;2.90;99.90;;;;;;5097830;28;20046;-80
2022/04/01 02:59:36;;;;;;;;;;;2.90;99.90;;;;;;5105259;28;19973;-80
2022/04/01 03:02:03;;;;;;;;;;;2.90;99.90;;;;;;5111251;28;20425;-79
2022/04/01 03:04:30;;;;;;;;;;;2.90;99.90;;;;;;5103406;28;19924;-79
2022/04/01 03:06:57;;;;;;;;;;;2.90;99.90;;;;;;5098473;28;19975;-80
2022/04/01 03:09:24;;;;;;;;;;;2.90;99.90;;;;;;5096889;28;20027;-80
2022/04/01 03:11:51;;;;;;;;;;;2.90;99.90;;;;;;5112966;28;20386;-79
2022/04/01 03:14:17;;;;;;;;;;;2.80;99.90;;;;;;5105538;28;19987;-80
2022/04/01 03:16:47;;;;;;;;;;;2.80;99.90;;;;;;5103179;28;19924;-79
2022/04/01 03:19:16;;;;;;;;;;;2.80;99.90;;;;;;5109482;28;19954;-79
2022/04/01 03:21:43;;;;;;;;;;;2.80;99.90;;;;;;5107582;28;19928;-79
2022/04/01 03:24:10;;;;;;;;;;;2.80;99.90;;;;;;5082100;28;19925;-80
2022/04/01 03:26:38;;;;;;;;;;;2.90;99.90;;;;;;5105049;28;19923;-80
2022/04/01 03:29:08;;;;;;;;;;;2.90;99.90;;;;;;5100881;28;19927;-80
2022/04/01 03:31:35;;;;;;;;;;;2.80;99.90;;;;;;5095336;28;19923;-80
2022/04/01 03:34:05;;;;;;;;;;;2.80;99.90;;;;;;5091932;28;19924;-79
2022/04/01 03:36:33;;;;;;;;;;;2.70;99.90;;;;;;5077422;28;19924;-80
2022/04/01 03:39:01;;;;;;;;;;;2.70;99.90;;;;;;5080469;28;19924;-80
2022/04/01 03:41:29;;;;;;;;;;;2.70;99.90;;;;;;5102089;28;19924;-80
2022/04/01 03:43:56;;;;;;;;;;;2.70;99.90;;;;;;5100469;28;19950;-80
2022/04/01 03:46:27;;;;;;;;;;;2.60;99.90;;;;;;5097040;28;19963;-79
2022/04/01 03:49:13;;;;;;;;;;;2.60;99.90;;;;;;5076344;28;19928;-80
2022/04/01 03:51:40;;;;;;;;;;;2.60;99.90;;;;;;5100988;28;19952;-80
2022/04/01 03:54:07;;;;;;;;;;;2.60;99.90;;;;;;5099312;28;19923;-80
2022/04/01 03:56:35;;;;;;;;;;;2.60;99.90;;;;;;5091215;28;20309;-79
2022/04/01 03:59:05;;;;;;;;;;;2.60;99.90;;;;;;5102004;28;19924;-80
2022/04/01 04:01:34;;;;;;;;;;;2.70;99.90;;;;;;5099404;28;19930;-79
2022/04/01 04:04:03;;;;;;;;;;;2.70;99.90;;;;;;5101370;28;19927;-79
2022/04/01 04:06:32;;;;;;;;;;;2.70;99.90;;;;;;5112340;28;19946;-80
2022/04/01 04:09:01;;;;;;;;;;;2.70;99.90;;;;;;5093691;28;19924;-80
2022/04/01 04:11:30;;;;;;;;;;;2.70;99.90;;;;;;5105603;28;19928;-80
2022/04/01 04:13:57;;;;;;;;;;;2.70;99.90;;;;;;5100121;28;20007;-79
2022/04/01 04:16:31;;;;;;;;;;;2.70;99.90;;;;;;5100744;28;20004;-80
2022/04/01 04:19:24;;;;;;;;;;;2.70;99.90;;;;;;5093706;28;19924;-80
2022/04/01 04:22:20;;;;;;;;;;;2.70;99.90;;;;;;5057901;28;20014;-80
2022/04/01 04:25:10;;;;;;;;;;;2.70;99.90;;;;;;5009180;28;20017;-80
2022/04/01 04:27:40;;;;;;;;;;;2.70;99.90;;;;;;5017771;28;19937;-79
2022/04/01 04:30:08;;;;;;;;;;;2.70;99.90;;;;;;5008155;28;19932;-79
2022/04/01 04:32:50;;;;;;;;;;;2.70;99.90;;;;;;5009323;28;19925;-80
2022/04/01 04:35:20;;;;;;;;;;;2.70;99.90;;;;;;5009168;28;19925;-80
2022/04/01 04:37:47;;;;;;;;;;;2.70;99.90;;;;;;5001019;28;19929;-80
2022/04/01 04:40:17;;;;;;;;;;;2.70;99.90;;;;;;4998066;28;19929;-79
2022/04/01 04:42:45;;;;;;;;;;;2.70;99.90;;;;;;5000747;28;19972;-80
2022/04/01 04:45:12;;;;;;;;;;;2.70;99.90;;;;;;4993397;28;20527;-79
2022/04/01 04:47:41;;;;;;;;;;;2.80;99.90;;;;;;4993150;28;19936;-79
2022/04/01 04:50:08;;;;;;;;;;;2.70;99.90;;;;;;5012609;28;19964;-80
2022/04/01 04:52:38;;;;;;;;;;;2.70;99.90;;;;;;5013316;28;19983;-79
2022/04/01 04:55:09;;;;;;;;;;;2.70;99.90;;;;;;5014737;28;20009;-80
2022/04/01 04:57:51;;;;;;;;;;;2.70;99.90;;;;;;5006601;28;19925;-79
2022/04/01 05:00:19;;;;;;;;;;;2.70;99.90;;;;;;5022955;28;20015;-79
2022/04/01 05:02:53;;;;;;;;;;;2.70;99.90;;;;;;5098615;28;19928;-80
2022/04/01 05:05:20;;;;;;;;;;;2.70;99.90;;;;;;5100763;28;19930;-80
2022/04/01 05:08:07;;;;;;;;;;;2.70;99.90;;;;;;5098420;28;20015;-80
2022/04/01 05:10:47;;;;;;;;;;;2.70;99.90;;;;;;5097247;28;19931;-80
2022/04/01 05:13:13;;;;;;;;;;;2.70;99.90;;;;;;5095329;28;19955;-80
2022/04/01 05:15:41;;;;;;;;;;;2.70;99.90;;;;;;5095371;28;19930;-80
2022/04/01 05:18:07;;;;;;;;;;;2.70;99.90;;;;;;5092850;28;19923;-80
2022/04/01 05:20:59;;;;;;;;;;;2.70;99.90;;;;;;5098506;28;20326;-80
2022/04/01 05:23:40;;;;;;;;;;;2.80;99.90;;;;;;5100626;27;19997;-80
2022/04/01 05:26:20;;;;;;;;;;;2.70;99.90;;;;;;5104342;28;20291;-79
2022/04/01 05:29:00;;;;;;;;;;;2.70;99.90;;;;;;5099829;28;19994;-80
2022/04/01 05:31:42;;;;;;;;;;;2.60;99.90;;;;;;5086563;28;20018;-80
2022/04/01 05:34:16;;;;;;;;;;;2.70;99.90;;;;;;5094169;28;19932;-80
2022/04/01 05:36:45;;;;;;;;;;;2.70;99.90;;;;;;5107860;28;20022;-80
2022/04/01 05:39:12;;;;;;;;;;;2.70;99.90;;;;;;5101189;28;20582;-81
2022/04/01 05:41:40;;;;;;;;;;;2.70;99.90;;;;;;5081470;28;19978;-80
2022/04/01 05:44:09;;;;;;;;;;;2.70;99.90;;;;;;5104836;28;20019;-80
2022/04/01 05:46:36;;;;;;;;;;;2.70;99.90;;;;;;5102913;28;19966;-80
2022/04/01 05:49:03;;;;;;;;;;;2.70;99.90;;;;;;5096158;28;19924;-79
2022/04/01 05:51:30;;;;;;;;;;;2.60;99.90;;;;;;5086515;28;19973;-80
2022/04/01 05:53:58;;;;;;;;;;;2.60;99.90;;;;;;5100425;28;20018;-80
2022/04/01 05:56:26;;;;;;;;;;;2.50;99.90;;;;;;5100870;28;19928;-80
2022/04/01 05:58:53;;;;;;;;;;;2.60;99.90;;;;;;5089839;28;20356;-80
2022/04/01 06:01:37;;;;;;;;;;;2.60;99.90;;;;;;5095024;27;19977;-80
2022/04/01 06:04:06;;;;;;;;;;;2.50;99.90;;;;;;5108486;28;19924;-80
2022/04/01 06:06:41;;;;;;;;;;;2.50;99.90;;;;;;5119279;27;20709;-80
2022/04/01 06:09:27;;;;;;;;;;;2.50;99.90;;;;;;5102179;28;19988;-80
2022/04/01 06:11:59;;;;;;;;;;;2.50;99.90;;;;;;5104551;27;19924;-81
2022/04/01 06:14:31;;;;;;;;;;;2.60;99.90;;;;;;5098305;28;19930;-80
2022/04/01 06:17:08;;;;;;;;;;;2.60;99.90;;;;;;5113145;28;19935;-79
2022/04/01 06:19:44;;;;;;;;;;;2.60;99.90;;;;;;5108131;28;19927;-78
2022/04/01 06:22:14;;;;;;;;;;;2.60;99.90;;;;;;5105571;28;20007;-80
2022/04/01 06:24:41;;;;;;;;;;;2.60;99.90;;;;;;5102709;28;19979;-80
2022/04/01 06:27:11;;;;;;;;;;;2.60;99.90;;;;;;5099868;28;19930;-80
2022/04/01 06:29:39;;;;;;;;;;;2.60;99.90;;;;;;5102567;28;19993;-80
2022/04/01 06:32:06;;;;;;;;;;;2.70;99.90;;;;;;5098535;28;20011;-79
2022/04/01 06:34:36;;;;;;;;;;;2.70;99.90;;;;;;5099686;28;19928;-79
2022/04/01 06:37:04;;;;;;;;;;;2.70;99.90;;;;;;5103086;28;19930;-80
2022/04/01 06:39:37;;;;;;;;;;;2.70;99.90;;;;;;5106983;28;20030;-79
2022/04/01 06:42:05;;;;;;;;;;;2.70;99.90;;;;;;5087752;28;20018;-80
2022/04/01 06:44:32;;;;;;;;;;;2.70;99.90;;;;;;5105244;28;19924;-79
2022/04/01 06:46:59;;;;;;;;;;;2.80;99.90;;;;;;5100748;27;19986;-80
2022/04/01 06:49:28;;;;;;;;;;;2.70;99.90;;;;;;5104981;28;20309;-80
2022/04/01 06:52:19;;;;;;;;;;;2.70;99.90;;;;;;5099187;28;20005;-79
2022/04/01 06:54:46;;;;;;;;;;;2.70;99.90;;;;;;5102534;28;19927;-79
2022/04/01 06:57:14;;;;;;;;;;;2.70;99.90;;;;;;5085922;28;20018;-79
2022/04/01 06:59:41;;;;;;;;;;;2.60;99.90;;;;;;5084640;28;19923;-80
2022/04/01 07:02:08;;;;;;;;;;;2.70;99.90;;;;;;5098745;28;20014;-80
2022/04/01 07:04:34;;;;;;;;;;;2.70;99.90;;;;;;5100413;27;20022;-81
2022/04/01 07:07:02;;;;;;;;;;;2.70;99.90;;;;;;5099380;28;20289;-79
2022/04/01 07:09:29;;;;;;;;;;;2.70;99.90;;;;;;5081942;28;19923;-80
2022/04/01 07:11:58;;;;;;;;;;;2.80;99.90;;;;;;5102940;28;19928;-81
2022/04/01 07:14:27;;;;;;;;;;;2.80;99.90;;;;;;5105205;28;19928;-81
2022/04/01 07:16:54;;;;;;;;;;;2.90;99.90;;;;;;5101915;28;20027;-79
2022/04/01 07:19:21;;;;;;;;;;;2.90;99.90;;;;;;5098268;28;19946;-81
2022/04/01 07:21:50;;;;;;;;;;;2.90;99.90;;;;;;5099563;28;19931;-80
2022/04/01 07:24:16;;;;;;;;;;;2.90;99.90;;;;;;5104933;27;19924;-81
2022/04/01 07:26:44;;;;;;;;;;;2.90;99.90;;;;;;5101542;28;19977;-81
2022/04/01 07:29:11;;;;;;;;;;;2.90;99.90;;;;;;5099231;27;19925;-81
2022/04/01 07:34:37;;;;;;;;;;;3.00;99.90;;;;;;5101424;28;20001;-78
2022/04/01 07:37:07;;;;;;;;;;;3.00;99.90;;;;;;5101206;27;19962;-78
2022/04/01 07:39:34;;;;;;;;;;;2.90;99.90;;;;;;5114648;27;20205;-79
2022/04/01 07:42:01;;;;;;;;;;;2.90;99.90;;;;;;5108095;28;20030;-79
2022/04/01 07:44:27;;;;;;;;;;;2.90;99.90;;;;;;5104386;28;19938;-80
2022/04/01 07:46:54;;;;;;;;;;;2.90;99.90;;;;;;5099278;28;19971;-79
2022/04/01 07:49:24;;;;;;;;;;;2.90;99.90;;;;;;5086610;28;20298;-78
2022/04/01 07:52:12;;;;;;;;;;;2.90;99.90;;;;;;5099157;28;20300;-79
2022/04/01 07:54:45;;;;;;;;;;;2.90;99.90;;;;;;5093550;28;19928;-79
2022/04/01 07:57:13;;;;;;;;;;;2.90;99.90;;;;;;5080838;28;19924;-78
2022/04/01 07:59:40;;;;;;;;;;;3.00;99.90;;;;;;5104518;28;19923;-79
2022/04/01 08:02:07;;;;;;;;;;;3.00;99.90;;;;;;5100307;28;20331;-79
2022/04/01 08:04:34;;;;;;;;;;;3.10;99.90;;;;;;5103071;28;19924;-79
2022/04/01 08:07:05;;;;;;;;;;;3.10;99.90;;;;;;5096756;28;19984;-79
2022/04/01 08:09:33;;;;;;;;;;;3.10;99.90;;;;;;5101214;28;19963;-79
2022/04/01 08:12:01;;;;;;;;;;;2.90;99.90;;;;;;5102596;28;19931;-79
2022/04/01 08:14:27;;;;;;;;;;;2.90;99.90;;;;;;5096539;28;20027;-79
2022/04/01 08:16:54;;;;;;;;;;;3.00;99.90;;;;;;5094798;28;19934;-78
2022/04/01 08:19:22;;;;;;;;;;;2.90;99.90;;;;;;5094830;28;19924;-78
2022/04/01 08:21:49;;;;;;;;;;;2.90;99.90;;;;;;5103489;28;20454;-77
2022/04/01 08:24:16;;;;;;;;;;;2.90;99.90;;;;;;5097064;28;20015;-79
2022/04/01 08:26:43;;;;;;;;;;;2.80;99.90;;;;;;5108353;28;20019;-79
2022/04/01 08:29:10;;;;;;;;;;;2.80;99.90;;;;;;5105830;28;19924;-78
2022/04/01 08:31:37;;;;;;;;;;;2.80;99.90;;;;;;5097013;28;19935;-77
2022/04/01 08:34:04;;;;;;;;;;;2.80;99.90;;;;;;5097516;28;19946;-78
2022/04/01 08:36:31;;;;;;;;;;;2.90;99.90;;;;;;5098057;28;19923;-79
2022/04/01 08:38:58;;;;;;;;;;;2.90;99.90;;;;;;5098236;28;19993;-80
2022/04/01 08:41:24;;;;;;;;;;;2.90;99.90;;;;;;5096240;28;19985;-80
2022/04/01 08:43:52;;;;;;;;;;;2.90;99.90;;;;;;5100324;28;19959;-80
2022/04/01 08:46:20;;;;;;;;;;;3.00;99.90;;;;;;5107564;27;19930;-80
2022/04/01 08:48:48;;;;;;;;;;;3.10;99.90;;;;;;5100688;28;19924;-80
2022/04/01 08:51:14;;;;;;;;;;;3.10;99.90;;;;;;5109910;28;20007;-80
2022/04/01 08:53:44;;;;;;;;;;;3.20;99.90;;;;;;5095898;28;20731;-80
2022/04/01 08:56:11;;;;;;;;;;;3.20;99.90;;;;;;5099555;28;20012;-79
2022/04/01 08:58:37;;;;;;;;;;;3.30;99.90;;;;;;5107183;28;19967;-80
2022/04/01 09:01:07;;;;;;;;;;;3.20;99.90;;;;;;5100516;28;19924;-80
2022/04/01 09:03:35;;;;;;;;;;;3.20;99.90;;;;;;5101417;28;20356;-80
2022/04/01 09:06:03;;;;;;;;;;;3.30;99.90;;;;;;5097443;28;19924;-80
2022/04/01 09:08:35;;;;;;;;;;;3.40;99.90;;;;;;5108863;28;19923;-80
2022/04/01 09:11:02;;;;;;;;;;;3.40;99.90;;;;;;5107508;28;19931;-79
2022/04/01 09:13:42;;;;;;;;;;;3.40;99.90;;;;;;5104818;27;20332;-80
2022/04/01 09:16:22;;;;;;;;;;;3.40;99.90;;;;;;5104892;28;19924;-79
2022/04/01 09:18:48;;;;;;;;;;;3.30;99.90;;;;;;5107483;27;19925;-80
2022/04/01 09:21:17;;;;;;;;;;;3.40;99.90;;;;;;5107781;28;19927;-79
2022/04/01 09:23:48;;;;;;;;;;;3.40;99.90;;;;;;5101420;28;19923;-80
2022/04/01 09:26:18;;;;;;;;;;;3.40;99.90;;;;;;5114198;28;19936;-80
2022/04/01 09:28:45;;;;;;;;;;;3.30;99.90;;;;;;5102733;28;19924;-79
2022/04/01 09:31:12;;;;;;;;;;;3.30;99.90;;;;;;5109177;28;19967;-79
2022/04/01 09:34:00;;;;;;;;;;;3.30;99.90;;;;;;5098491;28;20330;-80
2022/04/01 09:36:37;;;;;;;;;;;3.20;99.90;;;;;;5087287;28;19931;-80
2022/04/01 09:39:10;;;;;;;;;;;3.20;99.90;;;;;;5105900;28;19932;-80
2022/04/01 09:41:52;;;;;;;;;;;3.20;99.90;;;;;;5108717;28;20394;-79
2022/04/01 09:44:35;;;;;;;;;;;3.10;99.90;;;;;;5117040;27;19927;-79
2022/04/01 09:47:20;;;;;;;;;;;3.10;99.90;;;;;;5104784;28;19971;-78
2022/04/01 09:49:48;;;;;;;;;;;3.30;99.90;;;;;;5101741;27;19930;-78
2022/04/01 09:52:16;;;;;;;;;;;3.50;99.90;;;;;;5104518;27;19997;-79
2022/04/01 09:54:50;;;;;;;;;;;3.50;99.90;;;;;;5101141;27;19924;-78
2022/04/01 09:57:18;;;;;;;;;;;3.50;99.90;;;;;;5090053;28;19982;-78
2022/04/01 09:59:55;;;;;;;;;;;3.50;99.90;;;;;;5097266;28;20447;-79
2022/04/01 10:02:40;;;;;;;;;;;3.40;99.90;;;;;;5111828;27;19992;-79
2022/04/01 10:05:20;;;;;;;;;;;3.50;99.90;;;;;;5103123;28;19924;-79
2022/04/01 10:07:47;;;;;;;;;;;3.50;99.90;;;;;;5099589;28;20030;-79
2022/04/01 10:10:15;;;;;;;;;;;3.60;99.90;;;;;;5103665;28;19923;-79
2022/04/01 10:12:42;;;;;;;;;;;3.60;99.90;;;;;;5105527;28;19963;-78
2022/04/01 10:15:10;;;;;;;;;;;3.50;99.90;;;;;;5107219;27;20014;-79
2022/04/01 10:17:54;;;;;;;;;;;3.60;99.90;;;;;;5099482;28;19924;-79
2022/04/01 10:20:22;;;;;;;;;;;3.70;99.90;;;;;;5107413;28;19962;-79
2022/04/01 10:22:49;;;;;;;;;;;3.70;99.90;;;;;;5100693;28;19923;-79
2022/04/01 10:25:19;;;;;;;;;;;3.70;99.90;;;;;;5095296;28;20023;-79
2022/04/01 10:27:49;;;;;;;;;;;3.70;99.90;;;;;;5097512;28;20373;-79
2022/04/01 10:30:18;;;;;;;;;;;4.00;99.90;;;;;;5104847;28;19924;-79
2022/04/01 10:32:46;;;;;;;;;;;4.10;99.90;;;;;;5107261;28;19939;-78
2022/04/01 10:35:25;;;;;;;;;;;4.10;99.90;;;;;;5099203;28;19924;-78
2022/04/01 10:38:11;;;;;;;;;;;3.90;99.90;;;;;;5102230;28;19924;-79
2022/04/01 10:40:39;;;;;;;;;;;3.60;99.90;;;;;;5082598;28;20362;-79
2022/04/01 10:43:10;;;;;;;;;;;3.70;99.90;;;;;;5098695;28;19924;-78
2022/04/01 10:45:38;;;;;;;;;;;3.80;99.90;;;;;;5092217;28;19928;-79
2022/04/01 10:51:36;;;;;;;;;;;4.10;99.90;;;;;;5094054;28;19931;-79
2022/04/01 10:54:12;;;;;;;;;;;4.10;99.90;;;;;;5105096;28;20022;-78
2022/04/01 10:57:01;;;;;;;;;;;4.10;99.90;;;;;;5114147;27;19928;-79
2022/04/01 10:59:28;;;;;;;;;;;4.20;99.90;;;;;;5102057;28;19978;-79
2022/04/01 11:01:58;;;;;;;;;;;4.20;99.90;;;;;;5103226;28;19932;-80
2022/04/01 11:04:26;;;;;;;;;;;4.20;99.90;;;;;;5093512;28;19978;-79
2022/04/01 11:07:03;;;;;;;;;;;4.20;99.90;;;;;;5099790;27;20015;-78
2022/04/01 11:09:32;;;;;;;;;;;3.90;99.90;;;;;;5100243;28;20593;-79
2022/04/01 11:12:27;;;;;;;;;;;3.70;99.90;;;;;;5106080;27;19924;-79
2022/04/01 11:17:33;;;;;;;;;;;3.60;99.90;;;;;;5095200;28;19924;-78
2022/04/01 11:20:06;;;;;;;;;;;3.60;99.90;;;;;;5105510;28;19924;-78
2022/04/01 11:22:33;;;;;;;;;;;3.60;99.90;;;;;;5110355;28;20018;-79
2022/04/01 11:25:00;;;;;;;;;;;3.80;99.90;;;;;;5101898;28;20006;-79
2022/04/01 11:27:27;;;;;;;;;;;3.90;99.90;;;;;;5100963;28;20035;-79
2022/04/01 11:30:06;;;;;;;;;;;3.90;99.90;;;;;;5105556;28;20011;-78
2022/04/01 11:32:36;;;;;;;;;;;3.90;99.90;;;;;;5104093;28;19977;-79
2022/04/01 11:35:07;;;;;;;;;;;4.10;99.90;;;;;;5093165;27;19924;-77
2022/04/01 11:37:39;;;;;;;;;;;4.00;99.90;;;;;;5090922;28;19927;-76
2022/04/01 11:40:06;;;;;;;;;;;3.70;99.90;;;;;;5100437;28;20007;-77
2022/04/01 11:42:33;;;;;;;;;;;3.50;99.90;;;;;;5098832;28;19969;-78
2022/04/01 11:45:00;;;;;;;;;;;3.60;99.90;;;;;;5101534;28;19931;-78
2022/04/01 11:47:35;;;;;;;;;;;3.70;99.90;;;;;;5100602;28;19924;-78
2022/04/01 11:50:09;;;;;;;;;;;3.70;99.90;;;;;;5099646;28;19924;-77
2022/04/01 11:52:42;;;;;;;;;;;3.60;99.90;;;;;;5103289;28;19932;-77
2022/04/01 11:55:10;;;;;;;;;;;3.20;99.90;;;;;;5105272;28;19923;-78
2022/04/01 11:57:40;;;;;;;;;;;2.70;99.90;;;;;;5110416;28;19924;-77
2022/04/01 12:00:10;;;;;;;;;;;2.60;99.90;;;;;;5106930;28;19953;-77
2022/04/01 12:02:40;;;;;;;;;;;2.70;99.90;;;;;;5109060;27;19924;-78
2022/04/01 12:05:06;;;;;;;;;;;2.80;99.90;;;;;;5097282;28;19924;-78
2022/04/01 12:10:18;;;;;;;;;;;3.30;99.90;;;;;;5108348;27;19924;-79
2022/04/01 12:12:58;;;;;;;;;;;3.40;99.90;;;;;;5091712;28;20378;-78
2022/04/01 12:15:39;;;;;;;;;;;3.50;99.90;;;;;;5105238;28;20019;-77
2022/04/01 12:18:15;;;;;;;;;;;3.50;99.90;;;;;;5099927;27;19925;-77
2022/04/01 12:20:44;;;;;;;;;;;3.50;99.90;;;;;;5109968;28;19924;-78
2022/04/01 12:23:15;;;;;;;;;;;3.60;99.90;;;;;;5100843;27;20405;-77
2022/04/01 12:25:42;;;;;;;;;;;3.60;99.90;;;;;;5110242;28;19927;-78
2022/04/01 12:28:18;;;;;;;;;;;3.60;99.90;;;;;;5107194;27;19923;-76
2022/04/01 12:30:46;;;;;;;;;;;3.60;99.90;;;;;;5085841;28;20046;-78
2022/04/01 12:33:16;;;;;;;;;;;3.60;99.90;;;;;;5098666;28;19964;-77
2022/04/01 12:35:55;;;;;;;;;;;3.60;99.90;;;;;;5101917;27;19956;-77
2022/04/01 12:38:22;;;;;;;;;;;3.60;99.90;;;;;;5104612;28;19924;-76
2022/04/01 12:40:49;;;;;;;;;;;3.40;99.90;;;;;;5108194;28;19930;-76
2022/04/01 12:43:30;;;;;;;;;;;3.00;99.90;;;;;;5089343;28;19924;-76
2022/04/01 12:45:57;;;;;;;;;;;2.50;99.90;;;;;;5113790;28;20018;-75
2022/04/01 12:48:25;;;;;;;;;;;2.20;99.90;;;;;;5107705;27;20607;-77
2022/04/01 12:50:55;;;;;;;;;;;2.00;99.90;;;;;;5108941;28;19937;-76
2022/04/01 12:53:22;;;;;;;;;;;2.10;99.90;;;;;;5101916;28;19923;-76
2022/04/01 12:58:54;;;;;;;;;;;2.20;99.90;;;;;;5094888;28;19963;-76
2022/04/01 13:01:25;;;;;;;;;;;2.20;99.90;;;;;;5114574;27;19923;-75
2022/04/01 13:03:53;;;;;;;;;;;2.20;99.90;;;;;;5098872;28;19924;-75
2022/04/01 13:06:23;;;;;;;;;;;2.00;99.90;;;;;;5110481;27;20026;-75
2022/04/01 13:09:03;;;;;;;;;;;1.90;99.90;;;;;;5097342;28;19931;-76
2022/04/01 13:11:48;;;;;;;;;;;1.80;99.90;;;;;;5104105;28;19931;-75
2022/04/01 13:14:21;;;;;;;;;;;1.70;99.90;;;;;;5103981;28;20022;-76
2022/04/01 13:16:49;;;;;;;;;;;1.70;99.90;;;;;;5103745;28;20461;-76
2022/04/01 13:19:26;;;;;;;;;;;1.70;99.90;;;;;;5094526;28;19924;-77
2022/04/01 13:21:55;;;;;;;;;;;1.70;99.90;;;;;;5106187;28;19951;-78
2022/04/01 13:24:25;;;;;;;;;;;1.70;99.90;;;;;;5103435;28;20015;-76
2022/04/01 13:26:52;;;;;;;;;;;1.70;99.90;;;;;;5105712;28;19989;-76
2022/04/01 13:29:19;;;;;;;;;;;1.90;99.90;;;;;;5104568;28;19977;-76
2022/04/01 13:31:48;;;;;;;;;;;1.70;99.90;;;;;;5104735;28;20378;-74
2022/04/01 13:34:23;;;;;;;;;;;1.50;99.90;;;;;;5104685;28;20010;-76
2022/04/01 13:36:50;;;;;;;;;;;1.40;99.90;;;;;;5106841;27;20446;-76
2022/04/01 13:39:17;;;;;;;;;;;1.30;99.90;;;;;;5101540;27;20016;-76
2022/04/01 13:41:44;;;;;;;;;;;1.30;99.90;;;;;;5100874;28;19974;-76
2022/04/01 13:44:12;;;;;;;;;;;1.40;99.90;;;;;;5086018;28;20138;-76
2022/04/01 13:46:40;;;;;;;;;;;1.30;99.90;;;;;;5107801;28;19966;-76
2022/04/01 13:49:07;;;;;;;;;;;1.20;99.90;;;;;;5096148;28;20378;-76
2022/04/01 13:51:37;;;;;;;;;;;1.30;99.90;;;;;;5097196;28;19924;-76
2022/04/01 13:54:06;;;;;;;;;;;1.40;99.90;;;;;;5089504;28;19962;-77
2022/04/01 13:56:33;;;;;;;;;;;1.30;99.90;;;;;;5103720;27;19924;-77
2022/04/01 13:59:00;;;;;;;;;;;1.20;99.90;;;;;;5103916;27;19924;-76
2022/04/01 14:01:27;;;;;;;;;;;1.10;99.90;;;;;;5103893;28;19931;-77
2022/04/01 14:03:55;;;;;;;;;;;1.00;99.90;;;;;;5096107;28;19928;-77
2022/04/01 14:06:22;;;;;;;;;;;1.10;99.90;;;;;;5109713;28;19930;-75
2022/04/01 14:08:49;;;;;;;;;;;1.20;99.90;;;;;;5109647;28;20006;-76
2022/04/01 14:11:15;;;;;;;;;;;1.20;99.90;;;;;;5099479;28;20027;-77
2022/04/01 14:13:42;;;;;;;;;;;1.30;99.90;;;;;;5101527;28;20006;-75
2022/04/01 14:16:18;;;;;;;;;;;1.40;99.90;;;;;;5105758;28;20374;-76
2022/04/01 14:18:45;;;;;;;;;;;1.20;99.90;;;;;;5090941;28;19924;-75
2022/04/01 14:21:11;;;;;;;;;;;1.00;99.90;;;;;;5104994;28;19930;-75
2022/04/01 14:23:38;;;;;;;;;;;0.80;99.90;;;;;;5108933;27;19959;-75
2022/04/01 14:26:08;;;;;;;;;;;0.60;99.90;;;;;;5108218;28;20019;-75
2022/04/01 14:28:36;;;;;;;;;;;0.60;99.90;;;;;;5101540;28;19963;-75
2022/04/01 14:31:04;;;;;;;;;;;0.70;99.90;;;;;;5107190;28;20010;-76
2022/04/01 14:33:33;;;;;;;;;;;0.60;99.90;;;;;;5108501;27;20012;-75
2022/04/01 14:36:17;;;;;;;;;;;0.60;99.90;;;;;;5116269;27;19930;-75
2022/04/01 14:38:44;;;;;;;;;;;0.50;99.90;;;;;;5089458;28;20007;-74
2022/04/01 14:41:12;;;;;;;;;;;0.40;99.90;;;;;;5102570;27;19930;-74
2022/04/01 14:43:41;;;;;;;;;;;0.30;99.90;;;;;;5089969;28;19931;-74
2022/04/01 14:46:08;;;;;;;;;;;0.40;99.90;;;;;;5114333;27;20019;-74
2022/04/01 14:48:35;;;;;;;;;;;0.40;99.90;;;;;;5097199;28;19995;-74
2022/04/01 14:51:02;;;;;;;;;;;0.30;99.90;;;;;;5111890;27;19981;-74
2022/04/01 14:53:29;;;;;;;;;;;0.20;99.90;;;;;;5085826;28;19955;-73
2022/04/01 14:55:59;;;;;;;;;;;0.10;99.90;;;;;;5113193;27;20319;-74
2022/04/01 14:58:30;;;;;;;;;;;0.00;99.90;;;;;;5102456;27;20022;-74
2022/04/01 15:01:00;;;;;;;;;;;-0.10;99.90;;;;;;5100127;27;20304;-73
2022/04/01 15:03:27;;;;;;;;;;;-0.10;99.90;;;;;;5100020;28;20398;-71
2022/04/01 15:05:53;;;;;;;;;;;-0.10;99.90;;;;;;5099652;27;20271;-73
2022/04/01 15:08:20;;;;;;;;;;;-0.10;99.90;;;;;;5101190;27;20014;-72
2022/04/01 15:10:47;;;;;;;;;;;0.00;99.90;;;;;;5096487;27;19930;-74